Search for airport 
image banner adimage banner ad
image banner ad

EKTB - Torshavn/Bodanes

Located in Torshavn, Faroe Islands

ICAO - EKTB, IATA -

Data provided by Airmate  

General information

Coordinates: N62°1'18" W6°45'27"
Elevation is 68 feet MSL.
Magnetic variation is -8.2° East
View others Airports in (unassigned)

Operational data

Open for public use
Current time UTC:
Current local time:
Weather at : EKVG - Vagar ( 27 km )
METAR: EKVG 030320Z AUTO 04002KT 9999 -FZDZ BKN011/// 01/01 Q0984
View NOTAMs / SUP AIP / TFR affecting this airport [VIEW]
Communications frequencies: [VIEW]

Runways:

Airport contact information

Address: Torshavn Faroe Islands

Satellite view of EKTB